Terminal Aerodrome Forecast
Issued by NWS

Home | Current Version | Previous Version | Text Only | Print | Product List | Glossary On
Versions: 1 2 3 4 5 6 7 8 9 10 11 12 13 14 15 16 17 18 19 20 21 22 23 24 25 26
000
FTUS45 KPSR 211127
TAFPHX
TAF
KPHX 211127Z 2112/2212 26017G24KT P6SM VCSH SCT040 BKN090
     FM211900 28020G30KT P6SM SCT040 SCT100
     FM212300 26010KT P6SM BKN070
     FM220500 12006KT P6SM SCT120=

USA.gov is the U.S. government's official web portal to all federal, state and local government web resources and services.